createdAt,value
2022-11-24T00:00:21.924Z,42.99
2022-11-24T00:03:28.862Z,43.52
2022-11-24T00:06:38.018Z,41.87
2022-11-24T00:09:45.176Z,42.22
2022-11-24T00:12:51.174Z,44.64
2022-11-24T00:16:09.169Z,45.46
2022-11-24T00:19:19.553Z,44.23
2022-11-24T00:22:26.999Z,44.24
2022-11-24T00:25:33.141Z,43.00
2022-11-24T00:28:42.339Z,44.86
2022-11-24T00:31:51.341Z,46.00
2022-11-24T00:34:58.318Z,43.54
2022-11-24T00:38:04.301Z,46.73
2022-11-24T00:41:11.684Z,46.84
2022-11-24T00:44:17.680Z,45.76
2022-11-24T00:47:29.089Z,47.52
2022-11-24T00:50:35.113Z,48.07
2022-11-24T00:53:42.628Z,47.27
2022-11-24T00:56:48.574Z,52.31
2022-11-24T00:59:55.431Z,54.38
2022-11-24T01:03:04.115Z,54.27
2022-11-24T01:06:13.972Z,55.00
2022-11-24T01:09:19.955Z,53.98
2022-11-24T01:12:26.832Z,51.57
2022-11-24T01:15:33.177Z,48.93
2022-11-24T01:18:42.608Z,50.53
2022-11-24T01:21:49.431Z,47.82
2022-11-24T01:24:56.491Z,48.34
2022-11-24T01:28:02.439Z,46.68
2022-11-24T01:31:11.638Z,48.80
2022-11-24T01:34:20.496Z,50.80
2022-11-24T01:37:27.310Z,51.96
2022-11-24T01:40:33.259Z,48.50
2022-11-24T01:43:41.178Z,53.01
2022-11-24T01:46:55.593Z,50.74
2022-11-24T01:50:08.986Z,50.17
2022-11-24T01:53:17.889Z,47.41
2022-11-24T01:56:24.914Z,47.90
2022-11-24T01:59:32.243Z,47.35
2022-11-24T02:02:39.760Z,49.01
2022-11-24T02:05:58.949Z,49.66
2022-11-24T02:09:16.470Z,49.25
2022-11-24T02:12:22.850Z,50.82
2022-11-24T02:15:31.112Z,49.54
2022-11-24T02:18:37.918Z,48.40
2022-11-24T02:21:47.693Z,51.90
2022-11-24T02:25:05.642Z,51.16
2022-11-24T02:28:21.891Z,52.94
2022-11-24T02:31:28.176Z,51.73
2022-11-24T02:34:35.310Z,53.21
2022-11-24T02:37:41.766Z,56.39
2022-11-24T02:40:52.806Z,53.78
2022-11-24T02:44:05.302Z,53.84
2022-11-24T02:47:15.333Z,58.93
2022-11-24T02:50:21.511Z,64.81
2022-11-24T02:53:28.284Z,52.44
2022-11-24T02:56:34.282Z,55.48
2022-11-24T02:59:43.722Z,54.55
2022-11-24T03:02:49.853Z,53.71
2022-11-24T03:05:56.973Z,56.43
2022-11-24T03:09:03.061Z,59.65
2022-11-24T03:12:10.763Z,60.15
2022-11-24T03:15:19.616Z,53.48
2022-11-24T03:18:26.414Z,49.31
2022-11-24T03:21:32.701Z,50.95
2022-11-24T03:24:39.599Z,54.67
2022-11-24T03:27:45.617Z,56.60
2022-11-24T03:30:55.028Z,54.93
2022-11-24T03:34:01.181Z,55.73
2022-11-24T03:37:09.246Z,50.90
2022-11-24T03:40:16.023Z,50.04
2022-11-24T03:43:23.233Z,54.79
2022-11-24T03:46:31.876Z,65.10
2022-11-24T03:49:38.586Z,70.31
2022-11-24T03:52:44.547Z,68.34
2022-11-24T03:55:51.360Z,68.56
2022-11-24T03:58:57.396Z,70.42
2022-11-24T04:02:06.873Z,75.48
2022-11-24T04:05:13.220Z,69.08
2022-11-24T04:08:21.288Z,69.80
2022-11-24T04:11:39.698Z,71.77
2022-11-24T04:14:46.409Z,76.19
2022-11-24T04:17:57.608Z,77.82
2022-11-24T04:21:04.602Z,73.61
2022-11-24T04:24:10.907Z,80.42
2022-11-24T04:27:18.289Z,80.65
2022-11-24T04:30:26.586Z,69.33
2022-11-24T04:33:36.774Z,74.20
2022-11-24T04:36:42.832Z,76.82
2022-11-24T04:39:49.613Z,79.08
2022-11-24T04:42:59.947Z,77.08
2022-11-24T04:46:06.834Z,78.35
2022-11-24T04:49:15.539Z,73.17
2022-11-24T04:52:24.955Z,72.52
2022-11-24T04:55:30.945Z,74.99
2022-11-24T04:58:37.753Z,61.38
2022-11-24T05:01:44.219Z,64.10
2022-11-24T05:04:54.222Z,64.82
2022-11-24T05:08:02.545Z,65.03
2022-11-24T05:11:10.927Z,68.94
2022-11-24T05:14:16.811Z,67.39
2022-11-24T05:17:23.745Z,81.15
2022-11-24T05:20:32.242Z,86.48
2022-11-24T05:23:39.692Z,70.99
2022-11-24T05:26:45.636Z,84.16
2022-11-24T05:29:52.655Z,82.58
2022-11-24T05:32:58.607Z,86.16
2022-11-24T05:36:30.816Z,74.74
2022-11-24T05:39:37.863Z,71.28
2022-11-24T05:42:47.554Z,70.47
2022-11-24T05:45:54.136Z,69.11
2022-11-24T05:49:01.004Z,67.65
2022-11-24T05:52:09.641Z,67.94
2022-11-24T05:55:19.718Z,70.08
2022-11-24T05:58:25.683Z,69.81
2022-11-24T06:01:32.435Z,71.51
2022-11-24T06:04:38.526Z,76.05
2022-11-24T06:07:48.123Z,78.64
2022-11-24T06:10:54.122Z,83.18
2022-11-24T06:14:00.888Z,90.49
2022-11-24T06:17:08.075Z,86.63
2022-11-24T06:20:15.415Z,81.55
2022-11-24T06:23:23.840Z,74.13
2022-11-24T06:26:30.585Z,68.52
2022-11-24T06:29:36.392Z,67.40
2022-11-24T06:32:49.399Z,75.94
2022-11-24T06:35:55.922Z,82.50
2022-11-24T06:39:08.847Z,86.80
2022-11-24T06:42:18.793Z,80.07
2022-11-24T06:45:25.615Z,71.92
2022-11-24T06:48:32.747Z,75.22
2022-11-24T06:51:39.809Z,70.67
2022-11-24T06:54:48.256Z,71.93
2022-11-24T06:57:54.986Z,74.81
2022-11-24T07:01:01.089Z,76.34
2022-11-24T07:04:08.200Z,85.70
2022-11-24T07:07:14.214Z,77.22
2022-11-24T07:10:23.673Z,71.25
2022-11-24T07:13:29.526Z,86.38
2022-11-24T07:16:37.361Z,79.22
2022-11-24T07:19:43.286Z,77.57
2022-11-24T07:22:50.193Z,79.60
2022-11-24T07:26:02.392Z,81.41
2022-11-24T07:29:13.320Z,74.00
2022-11-24T07:32:19.252Z,67.78
2022-11-24T07:35:26.738Z,61.72
2022-11-24T07:38:33.997Z,62.67
2022-11-24T07:41:43.333Z,81.87
2022-11-24T07:44:49.447Z,102.85
2022-11-24T07:47:56.184Z,68.00
2022-11-24T07:51:03.531Z,64.58
2022-11-24T07:54:10.836Z,67.23
2022-11-24T07:57:19.312Z,72.83
2022-11-24T08:00:27.342Z,78.88
2022-11-24T08:03:33.257Z,68.11
2022-11-24T08:06:44.663Z,74.80
2022-11-24T08:09:53.360Z,74.50
2022-11-24T08:13:06.283Z,69.60
2022-11-24T08:16:16.302Z,68.08
2022-11-24T08:19:24.672Z,67.86
2022-11-24T08:22:30.644Z,65.72
2022-11-24T08:25:37.353Z,70.16
2022-11-24T08:28:47.007Z,68.93
2022-11-24T08:31:53.767Z,71.43
2022-11-24T08:35:13.224Z,69.63
2022-11-24T08:38:20.548Z,65.33
2022-11-24T08:41:27.931Z,68.17
2022-11-24T08:44:37.400Z,69.92
2022-11-24T08:47:43.449Z,64.00
2022-11-24T08:50:50.218Z,67.01
2022-11-24T08:53:58.870Z,68.26
2022-11-24T08:57:05.634Z,73.37
2022-11-24T09:00:22.331Z,80.07
2022-11-24T09:03:29.664Z,73.37
2022-11-24T09:06:35.546Z,67.82
2022-11-24T09:09:42.264Z,67.67
2022-11-24T09:12:49.330Z,63.78
2022-11-24T09:15:59.579Z,65.66
2022-11-24T09:19:09.539Z,68.40
2022-11-24T09:22:16.270Z,63.23
2022-11-24T09:25:23.788Z,65.15
2022-11-24T09:28:30.789Z,66.97
2022-11-24T09:31:42.167Z,68.68
2022-11-24T09:34:48.976Z,72.53
2022-11-24T09:37:54.842Z,71.90
2022-11-24T09:41:41.219Z,72.97
2022-11-24T09:45:26.327Z,73.53
2022-11-24T09:48:53.605Z,77.02
2022-11-24T09:52:04.488Z,76.88
2022-11-24T09:55:37.934Z,77.14
2022-11-24T09:58:51.450Z,78.03
2022-11-24T10:01:58.743Z,74.98
2022-11-24T10:05:09.851Z,75.83
2022-11-24T10:08:48.032Z,74.28
2022-11-24T10:12:16.150Z,73.13
2022-11-24T10:15:45.205Z,77.18
2022-11-24T10:19:16.077Z,68.85
2022-11-24T10:22:48.709Z,66.72
2022-11-24T10:26:01.222Z,61.18
2022-11-24T10:29:29.290Z,63.43
2022-11-24T10:32:47.065Z,58.85
2022-11-24T10:36:05.207Z,58.40
2022-11-24T10:39:26.792Z,62.69
2022-11-24T10:42:37.557Z,63.29
2022-11-24T10:45:44.504Z,64.31
2022-11-24T10:49:00.153Z,68.35
2022-11-24T10:52:16.312Z,67.47
2022-11-24T10:55:25.775Z,65.11
2022-11-24T10:58:37.623Z,64.72
2022-11-24T11:01:44.934Z,63.65
2022-11-24T11:04:50.865Z,61.85
2022-11-24T11:08:20.891Z,61.87
2022-11-24T11:11:32.983Z,56.71
2022-11-24T11:14:39.786Z,52.85
2022-11-24T11:17:50.559Z,52.48
2022-11-24T11:21:02.090Z,50.74
2022-11-24T11:24:19.479Z,49.65
2022-11-24T11:27:30.962Z,51.84
2022-11-24T11:34:23.739Z,50.57
2022-11-24T11:37:37.406Z,50.94
2022-11-24T11:40:45.707Z,52.77
2022-11-24T11:44:14.984Z,57.57
2022-11-24T11:47:32.311Z,58.23
2022-11-24T11:54:39.253Z,58.00
2022-11-24T11:58:04.122Z,56.67
2022-11-24T12:01:41.445Z,53.40
2022-11-24T12:04:56.854Z,71.21
2022-11-24T12:08:43.952Z,79.65
2022-11-24T12:12:28.711Z,79.62
2022-11-24T12:15:45.512Z,70.18
2022-11-24T12:19:18.795Z,85.62
2022-11-24T12:22:41.816Z,87.70
2022-11-24T12:26:01.842Z,79.18
2022-11-24T12:29:48.495Z,70.22
2022-11-24T12:33:20.260Z,68.39
2022-11-24T12:36:55.332Z,84.53
2022-11-24T12:40:16.231Z,85.66
2022-11-24T12:43:35.778Z,65.68
2022-11-24T12:46:59.450Z,60.10
2022-11-24T12:50:17.095Z,58.72
2022-11-24T12:53:31.594Z,56.98
2022-11-24T12:56:48.413Z,52.12
2022-11-24T13:00:09.022Z,51.90
2022-11-24T13:03:35.353Z,51.63
2022-11-24T13:06:56.382Z,49.75
2022-11-24T13:14:08.164Z,50.93
2022-11-24T13:21:00.353Z,58.32
2022-11-24T13:24:26.084Z,57.94
2022-11-24T13:27:46.514Z,54.86
2022-11-24T13:31:13.662Z,53.22
2022-11-24T13:34:57.597Z,49.55
2022-11-24T13:38:05.564Z,45.82
2022-11-24T13:41:28.293Z,47.26
2022-11-24T13:44:55.399Z,49.70
2022-11-24T13:48:01.327Z,51.09
2022-11-24T13:51:27.362Z,56.98
2022-11-24T13:54:34.266Z,60.77
2022-11-24T13:57:46.158Z,54.25
2022-11-24T14:01:15.993Z,62.56
2022-11-24T14:04:30.993Z,59.90
2022-11-24T14:07:38.099Z,57.45
2022-11-24T14:10:46.457Z,55.16
2022-11-24T14:13:52.440Z,55.21
2022-11-24T14:17:23.568Z,55.62
2022-11-24T14:20:31.433Z,57.26
2022-11-24T14:23:44.511Z,57.22
2022-11-24T14:26:51.143Z,59.82
2022-11-24T14:30:01.235Z,72.44
2022-11-24T14:33:16.195Z,79.49
2022-11-24T14:36:23.020Z,73.67
2022-11-24T14:39:33.289Z,76.27
2022-11-24T14:42:41.190Z,69.30
2022-11-24T14:45:54.156Z,75.06
2022-11-24T14:49:04.452Z,68.76
2022-11-24T14:52:19.780Z,72.46
2022-11-24T14:55:31.680Z,69.48
2022-11-24T14:58:42.252Z,71.97
2022-11-24T15:01:49.756Z,81.86
2022-11-24T15:05:04.900Z,83.02
2022-11-24T15:08:18.621Z,92.51
2022-11-24T15:11:24.983Z,87.13
2022-11-24T15:14:53.200Z,102.86
2022-11-24T15:18:02.720Z,119.32
2022-11-24T15:21:18.967Z,98.75
2022-11-24T15:24:25.301Z,121.70
2022-11-24T15:27:32.767Z,127.58
2022-11-24T15:30:41.339Z,111.18
2022-11-24T15:33:48.275Z,104.14
2022-11-24T15:36:56.836Z,107.60
2022-11-24T15:40:03.706Z,125.05
2022-11-24T15:43:31.263Z,122.09
2022-11-24T15:46:40.644Z,102.26
2022-11-24T15:49:46.730Z,98.77
2022-11-24T15:52:56.365Z,146.55
2022-11-24T15:56:05.395Z,164.21
2022-11-24T15:59:21.212Z,136.42
2022-11-24T16:02:27.542Z,145.90
2022-11-24T16:05:36.226Z,128.86
2022-11-24T16:08:44.857Z,100.28
2022-11-24T16:11:51.725Z,92.66
2022-11-24T16:14:57.697Z,108.32
2022-11-24T16:18:04.878Z,105.19
2022-11-24T16:21:13.446Z,107.55
2022-11-24T16:24:22.984Z,111.85
2022-11-24T16:27:29.111Z,107.17
2022-11-24T16:30:35.911Z,108.93
2022-11-24T16:33:44.910Z,112.57
2022-11-24T16:36:52.144Z,106.39
2022-11-24T16:40:02.674Z,104.94
2022-11-24T16:43:09.625Z,112.42
2022-11-24T16:46:22.829Z,97.48
2022-11-24T16:49:29.726Z,87.62
2022-11-24T16:52:35.767Z,90.37
2022-11-24T16:55:45.451Z,107.10
2022-11-24T16:58:51.643Z,98.96
2022-11-24T17:01:59.312Z,97.27
2022-11-24T17:05:05.956Z,91.07
2022-11-24T17:08:12.914Z,92.77
2022-11-24T17:11:24.704Z,113.16
2022-11-24T17:14:31.835Z,112.95
2022-11-24T17:17:55.158Z,103.21
2022-11-24T17:21:09.717Z,98.46
2022-11-24T17:24:18.292Z,93.75
2022-11-24T17:27:27.683Z,109.63
2022-11-24T17:30:33.780Z,101.03
2022-11-24T17:33:40.982Z,121.71
2022-11-24T17:36:47.300Z,163.82
2022-11-24T17:40:20.315Z,93.75
2022-11-24T17:43:22.882Z,110.93
2022-11-24T17:46:32.912Z,95.49
2022-11-24T17:49:39.049Z,93.20
2022-11-24T17:52:45.918Z,95.74
2022-11-24T17:55:52.033Z,102.99
2022-11-24T17:59:03.454Z,140.30
2022-11-24T18:02:09.809Z,163.67
2022-11-24T18:05:17.019Z,138.06
2022-11-24T18:08:24.472Z,218.53
2022-11-24T18:11:33.836Z,136.56
2022-11-24T18:14:42.600Z,186.41
2022-11-24T18:17:51.232Z,336.45
2022-11-24T18:20:58.522Z,238.06
2022-11-24T18:24:05.659Z,205.84
2022-11-24T18:27:11.862Z,247.80
2022-11-24T18:30:21.889Z,96.21
2022-11-24T18:33:28.111Z,84.42
2022-11-24T18:36:36.547Z,88.27
2022-11-24T18:39:43.858Z,88.40
2022-11-24T18:42:50.980Z,88.43
2022-11-24T18:46:00.428Z,111.67
2022-11-24T18:49:10.782Z,145.27
2022-11-24T18:52:16.950Z,108.77
2022-11-24T18:55:24.036Z,97.20
2022-11-24T18:58:32.924Z,91.50
2022-11-24T19:01:43.114Z,92.90
2022-11-24T19:04:49.509Z,111.12
2022-11-24T19:07:56.583Z,112.30
2022-11-24T19:11:03.766Z,113.94
2022-11-24T19:14:16.022Z,118.56
2022-11-24T19:17:24.776Z,118.04
2022-11-24T19:20:32.043Z,116.59
2022-11-24T19:23:38.009Z,113.72
2022-11-24T19:26:45.608Z,100.32
2022-11-24T19:29:51.688Z,96.44
2022-11-24T19:33:01.259Z,100.99
2022-11-24T19:36:14.396Z,103.31
2022-11-24T19:39:22.077Z,98.39
2022-11-24T19:42:28.663Z,96.55
2022-11-24T19:45:35.746Z,103.41
2022-11-24T19:48:47.429Z,96.95
2022-11-24T19:52:00.242Z,94.48
2022-11-24T19:55:07.690Z,95.01
2022-11-24T19:58:14.700Z,94.45
2022-11-24T20:01:25.058Z,96.79
2022-11-24T20:04:38.614Z,96.37
2022-11-24T20:07:44.798Z,97.64
2022-11-24T20:10:51.992Z,99.83
2022-11-24T20:13:59.264Z,93.12
2022-11-24T20:17:06.926Z,92.55
2022-11-24T20:20:16.729Z,92.84
2022-11-24T20:23:23.720Z,94.24
2022-11-24T20:26:34.328Z,93.45
2022-11-24T20:29:46.623Z,91.35
2022-11-24T20:32:53.018Z,88.87
2022-11-24T20:36:07.823Z,92.26
2022-11-24T20:39:19.435Z,93.07
2022-11-24T20:42:27.267Z,90.87
2022-11-24T20:45:33.673Z,103.71
2022-11-24T20:48:42.211Z,97.66
2022-11-24T20:51:54.768Z,107.55
2022-11-24T20:55:04.127Z,121.80
2022-11-24T20:58:10.119Z,142.24
2022-11-24T21:01:20.686Z,141.00
2022-11-24T21:04:29.814Z,152.75
2022-11-24T21:07:57.632Z,144.91
2022-11-24T21:11:04.042Z,162.76
2022-11-24T21:14:12.640Z,170.13
2022-11-24T21:17:19.410Z,154.13
2022-11-24T21:20:28.017Z,137.56
2022-11-24T21:23:37.228Z,141.33
2022-11-24T21:26:47.765Z,148.30
2022-11-24T21:29:53.836Z,149.97
2022-11-24T21:33:00.744Z,154.68
2022-11-24T21:36:09.069Z,163.43
2022-11-24T21:39:19.288Z,163.61
2022-11-24T21:42:25.331Z,203.38
2022-11-24T21:45:32.556Z,207.60
2022-11-24T21:48:40.650Z,199.28
2022-11-24T21:51:47.555Z,194.16
2022-11-24T21:54:56.206Z,191.84
2022-11-24T21:58:03.031Z,189.07
2022-11-24T22:01:11.759Z,190.89
2022-11-24T22:04:18.884Z,202.20
2022-11-24T22:07:24.828Z,213.12
2022-11-24T22:10:34.189Z,216.26
2022-11-24T22:13:40.964Z,201.41
2022-11-24T22:16:48.041Z,191.35
2022-11-24T22:19:54.136Z,170.73
2022-11-24T22:23:01.018Z,166.35
2022-11-24T22:26:14.709Z,161.55
2022-11-24T22:29:21.522Z,157.17
2022-11-24T22:32:30.031Z,157.17
2022-11-24T22:35:37.023Z,155.68
2022-11-24T22:38:44.089Z,152.00
2022-11-24T22:41:53.632Z,149.41
2022-11-24T22:44:59.589Z,154.40
2022-11-24T22:48:06.461Z,169.24
2022-11-24T22:51:15.742Z,177.09
2022-11-24T22:54:22.715Z,171.34
2022-11-24T22:57:31.309Z,161.09
2022-11-24T23:00:38.124Z,159.54
2022-11-24T23:03:45.504Z,194.76
2022-11-24T23:06:52.347Z,173.75
2022-11-24T23:09:58.269Z,151.30
2022-11-24T23:13:07.749Z,143.69
2022-11-24T23:16:18.084Z,138.31
2022-11-24T23:19:24.967Z,139.22
2022-11-24T23:22:30.860Z,139.29
2022-11-24T23:25:37.695Z,139.88
2022-11-24T23:28:46.547Z,140.36
2022-11-24T23:31:53.402Z,150.23
2022-11-24T23:34:59.346Z,156.99
2022-11-24T23:38:07.667Z,154.20
2022-11-24T23:41:17.353Z,160.13
2022-11-24T23:44:26.834Z,151.65
2022-11-24T23:47:32.748Z,161.84
2022-11-24T23:50:39.573Z,180.24
2022-11-24T23:53:46.761Z,180.31
2022-11-24T23:56:53.549Z,166.75
